Time;durP1;ratioP1;P1;durP2;ratioP2;P2;SDS_P1;SDS_P2;PMS_P1;PMS_P2;Temp;Humidity;BMP_temperature;BMP_pressure;BME280_temperature;BME280_humidity;BME280_pressure;Samples;Min_cycle;Max_cycle;Signal;HPM_P1;HPM_P2
2022/10/01 00:00:50;;;;;;;7.80;7.10;;;10.60;1.00;;;;;;5033500;28;20375;-66
2022/10/01 00:03:16;;;;;;;8.67;7.97;;;10.60;1.00;;;;;;5033334;28;20423;-72
2022/10/01 00:05:42;;;;;;;8.73;7.97;;;10.60;1.00;;;;;;5032259;28;20422;-72
2022/10/01 00:08:09;;;;;;;8.33;7.50;;;10.60;1.00;;;;;;5033400;28;20803;-65
2022/10/01 00:10:35;;;;;;;10.63;8.17;;;10.60;1.00;;;;;;5033320;28;20384;-66
2022/10/01 00:13:01;;;;;;;9.83;8.77;;;10.60;1.00;;;;;;5033231;28;20377;-71
2022/10/01 00:15:27;;;;;;;10.80;8.60;;;10.60;1.00;;;;;;5032484;28;20513;-72
2022/10/01 00:17:52;;;;;;;8.53;7.67;;;10.60;1.00;;;;;;5032298;28;20179;-66
2022/10/01 00:20:18;;;;;;;8.40;7.63;;;10.60;1.00;;;;;;5032226;28;20168;-66
2022/10/01 00:22:46;;;;;;;8.40;7.60;;;10.60;1.00;;;;;;5033094;28;20193;-67
2022/10/01 00:25:12;;;;;;;11.03;7.30;;;10.60;1.00;;;;;;5032115;28;20396;-67
2022/10/01 00:27:38;;;;;;;7.17;6.47;;;10.60;1.00;;;;;;5033374;28;20377;-73
2022/10/01 00:30:05;;;;;;;8.50;7.70;;;10.60;1.00;;;;;;5033468;28;20729;-66
2022/10/01 00:32:32;;;;;;;8.57;7.77;;;10.50;1.00;;;;;;5036731;28;20381;-72
2022/10/01 00:35:01;;;;;;;7.80;6.87;;;10.50;1.00;;;;;;5036436;28;20913;-72
2022/10/01 00:37:27;;;;;;;11.00;7.67;;;10.50;1.00;;;;;;5037204;28;20380;-73
2022/10/01 00:39:53;;;;;;;7.23;6.63;;;10.50;1.00;;;;;;5037210;28;20421;-73
2022/10/01 00:42:25;;;;;;;7.23;6.63;;;10.50;1.00;;;;;;5037123;28;20205;-73
2022/10/01 00:44:52;;;;;;;8.03;6.87;;;10.60;1.00;;;;;;5035914;28;20509;-67
2022/10/01 00:47:31;;;;;;;10.47;7.23;;;10.60;1.00;;;;;;5036977;28;20761;-73
2022/10/01 00:50:18;;;;;;;7.47;6.73;;;10.60;1.00;;;;;;5036962;28;20454;-72
2022/10/01 00:52:51;;;;;;;6.30;5.83;;;10.60;1.00;;;;;;5036896;28;20437;-73
2022/10/01 00:55:25;;;;;;;7.00;6.40;;;10.50;1.00;;;;;;5036167;28;20433;-72
2022/10/01 00:57:53;;;;;;;7.17;6.37;;;10.60;1.00;;;;;;5037005;28;20409;-72
2022/10/01 01:00:20;;;;;;;5.83;5.43;;;10.50;1.00;;;;;;5036732;28;20369;-72
2022/10/01 01:02:45;;;;;;;7.60;6.73;;;10.50;1.00;;;;;;5036168;28;20841;-66
2022/10/01 01:05:12;;;;;;;6.50;5.97;;;10.40;1.00;;;;;;5035953;28;20485;-72
2022/10/01 01:07:43;;;;;;;6.43;5.93;;;10.50;1.00;;;;;;5036417;28;20250;-73
2022/10/01 01:10:11;;;;;;;6.47;5.97;;;10.40;1.00;;;;;;5036662;28;20399;-65
2022/10/01 01:12:48;;;;;;;8.00;5.93;;;10.40;1.00;;;;;;5036498;28;20406;-72
2022/10/01 01:15:24;;;;;;;9.20;5.80;;;10.50;1.00;;;;;;5035680;28;20961;-72
2022/10/01 01:18:11;;;;;;;6.63;5.93;;;10.50;1.00;;;;;;5036312;28;20398;-66
2022/10/01 01:20:49;;;;;;;5.70;5.30;;;10.50;1.00;;;;;;5035943;28;20392;-73
2022/10/01 01:23:17;;;;;;;7.00;5.90;;;10.50;1.00;;;;;;5055425;28;20413;-73
2022/10/01 01:25:58;;;;;;;6.10;5.50;;;10.50;1.00;;;;;;5041227;28;20512;-73
2022/10/01 01:28:43;;;;;;;5.73;5.33;;;10.50;1.00;;;;;;5036258;28;20452;-73
2022/10/01 01:31:14;;;;;;;5.73;5.20;;;10.50;1.00;;;;;;5042359;28;20426;-73
2022/10/01 01:33:43;;;;;;;7.07;6.37;;;10.50;1.00;;;;;;5035321;28;20874;-66
2022/10/01 01:36:19;;;;;;;5.67;5.27;;;10.40;1.00;;;;;;5036076;28;20912;-66
2022/10/01 01:38:53;;;;;;;6.00;5.60;;;10.50;1.00;;;;;;5036561;28;20993;-67
2022/10/01 01:41:22;;;;;;;6.57;6.07;;;10.40;1.00;;;;;;5036076;28;20872;-66
2022/10/01 01:43:52;;;;;;;7.30;6.80;;;10.40;1.00;;;;;;5045509;28;20403;-73
2022/10/01 01:46:19;;;;;;;6.03;5.20;;;10.40;1.00;;;;;;5055871;28;20896;-74
2022/10/01 01:48:48;;;;;;;4.50;4.10;;;10.50;1.00;;;;;;5044974;28;20432;-67
2022/10/01 01:51:31;;;;;;;5.50;5.03;;;10.50;1.00;;;;;;5035906;28;20385;-73
2022/10/01 01:53:56;;;;;;;5.77;5.33;;;10.50;1.00;;;;;;5045898;28;20396;-67
2022/10/01 01:56:22;;;;;;;5.67;5.00;;;10.50;1.00;;;;;;5055399;28;20495;-67
2022/10/01 01:58:49;;;;;;;5.73;5.03;;;10.50;1.00;;;;;;5045563;28;20179;-73
2022/10/01 02:01:34;;;;;;;5.57;5.17;;;10.50;1.00;;;;;;5035631;28;20365;-73
2022/10/01 02:04:04;;;;;;;6.70;4.63;;;10.60;1.00;;;;;;5044750;28;20437;-73
2022/10/01 02:07:00;;;;;;;4.50;4.30;;;10.60;1.00;;;;;;5055387;28;20449;-73
2022/10/01 02:09:32;;;;;;;4.53;4.13;;;10.50;1.00;;;;;;5042738;28;20466;-73
2022/10/01 02:12:21;;;;;;;5.70;5.30;;;10.50;1.00;;;;;;5035270;28;20426;-66
2022/10/01 02:15:04;;;;;;;6.20;4.83;;;10.60;1.00;;;;;;5033001;28;20516;-66
2022/10/01 02:17:42;;;;;;;4.87;4.40;;;10.60;1.00;;;;;;5035335;28;20431;-68
2022/10/01 02:20:38;;;;;;;4.80;4.40;;;10.60;1.00;;;;;;5052686;28;20532;-66
2022/10/01 02:23:30;;;;;;;5.87;4.17;;;10.70;1.00;;;;;;5054906;28;20512;-72
2022/10/01 02:26:01;;;;;;;4.13;3.83;;;10.70;1.00;;;;;;5034362;28;20413;-66
2022/10/01 02:28:31;;;;;;;4.63;4.33;;;10.70;1.00;;;;;;5037236;28;20528;-73
2022/10/01 02:31:00;;;;;;;4.60;4.20;;;10.70;1.00;;;;;;5053266;28;20384;-73
2022/10/01 02:33:32;;;;;;;4.87;4.57;;;10.70;1.00;;;;;;5048802;28;20397;-73
2022/10/01 02:36:00;;;;;;;4.27;3.97;;;10.70;1.00;;;;;;5034221;28;20397;-74
2022/10/01 02:38:27;;;;;;;4.67;4.37;;;10.70;1.00;;;;;;5039683;28;20469;-74
2022/10/01 02:40:59;;;;;;;4.50;4.13;;;10.70;1.00;;;;;;5054929;28;20487;-73
2022/10/01 02:43:31;;;;;;;5.43;4.97;;;10.70;1.00;;;;;;5050097;28;20404;-71
2022/10/01 02:46:02;;;;;;;4.97;4.57;;;10.80;1.00;;;;;;5034132;28;20723;-68
2022/10/01 02:48:28;;;;;;;5.80;4.73;;;10.80;1.00;;;;;;5039188;28;20441;-74
2022/10/01 02:51:03;;;;;;;5.03;4.53;;;10.80;1.00;;;;;;5041397;28;20418;-74
2022/10/01 02:53:40;;;;;;;5.30;4.83;;;10.80;1.00;;;;;;5034571;28;20419;-66
2022/10/01 02:56:07;;;;;;;4.50;4.20;;;10.80;1.00;;;;;;5042208;28;20411;-68
2022/10/01 02:58:35;;;;;;;4.60;4.20;;;10.80;1.00;;;;;;5054455;28;20714;-66
2022/10/01 03:01:01;;;;;;;7.83;5.00;;;10.80;1.00;;;;;;5046858;28;20465;-74
2022/10/01 03:03:26;;;;;;;4.60;4.20;;;10.80;1.00;;;;;;5034085;28;20409;-67
2022/10/01 03:05:52;;;;;;;5.10;4.60;;;10.80;1.00;;;;;;5038895;28;20449;-69
2022/10/01 03:08:18;;;;;;;6.53;4.23;;;10.80;1.00;;;;;;5052796;28;20198;-72
2022/10/01 03:10:44;;;;;;;5.17;4.77;;;10.80;1.00;;;;;;5050002;28;20175;-66
2022/10/01 03:13:09;;;;;;;5.20;4.80;;;10.80;1.00;;;;;;5034245;28;20175;-73
2022/10/01 03:15:35;;;;;;;3.97;3.67;;;10.90;1.00;;;;;;5034277;28;20348;-74
2022/10/01 03:18:01;;;;;;;5.73;5.17;;;10.90;1.00;;;;;;5034123;28;20164;-74
2022/10/01 03:20:26;;;;;;;4.57;4.17;;;10.90;1.00;;;;;;5033935;28;20269;-73
2022/10/01 03:22:52;;;;;;;4.30;4.00;;;10.80;1.00;;;;;;5034724;28;20261;-66
2022/10/01 03:25:18;;;;;;;5.27;4.80;;;10.80;1.00;;;;;;5034009;28;20202;-75
2022/10/01 03:27:45;;;;;;;5.10;4.70;;;10.80;1.00;;;;;;5035586;28;20186;-74
2022/10/01 03:30:11;;;;;;;4.40;4.10;;;10.90;1.00;;;;;;5034125;28;20170;-67
2022/10/01 03:32:37;;;;;;;4.70;4.40;;;11.00;1.00;;;;;;5033691;28;20393;-67
2022/10/01 03:35:03;;;;;;;6.40;4.60;;;10.90;1.00;;;;;;5033025;28;20408;-66
2022/10/01 03:37:29;;;;;;;4.50;4.10;;;11.00;1.00;;;;;;5053154;28;20707;-66
2022/10/01 03:39:54;;;;;;;4.70;4.30;;;11.00;1.00;;;;;;5053689;28;20182;-75
2022/10/01 03:42:20;;;;;;;5.13;4.73;;;11.00;1.00;;;;;;5035499;28;20187;-66
2022/10/01 03:44:46;;;;;;;5.17;4.87;;;11.00;1.00;;;;;;5032631;28;20172;-75
2022/10/01 03:47:12;;;;;;;5.00;4.53;;;11.00;1.00;;;;;;5049491;28;20606;-73
2022/10/01 03:49:38;;;;;;;7.43;4.50;;;11.00;1.00;;;;;;5053776;28;20510;-67
2022/10/01 03:52:05;;;;;;;6.97;4.30;;;11.10;1.00;;;;;;5035284;28;20187;-73
2022/10/01 03:54:31;;;;;;;5.20;4.20;;;11.10;1.00;;;;;;5032693;28;20171;-74
2022/10/01 03:56:57;;;;;;;5.27;4.33;;;11.10;1.00;;;;;;5049533;28;20429;-67
2022/10/01 03:59:24;;;;;;;5.03;4.03;;;11.10;1.00;;;;;;5053383;28;20459;-68
2022/10/01 04:01:50;;;;;;;4.60;4.30;;;11.10;1.00;;;;;;5038003;28;20430;-74
2022/10/01 04:04:15;;;;;;;5.37;4.10;;;11.20;1.00;;;;;;5032662;28;20480;-67
2022/10/01 04:06:41;;;;;;;5.07;4.67;;;11.20;1.00;;;;;;5036425;28;20206;-74
2022/10/01 04:09:08;;;;;;;4.27;3.90;;;11.10;1.00;;;;;;5033287;28;20199;-66
2022/10/01 04:11:35;;;;;;;5.37;4.90;;;11.20;1.00;;;;;;5033631;28;20168;-66
2022/10/01 04:14:00;;;;;;;5.00;4.57;;;11.20;1.00;;;;;;5032656;28;20471;-67
2022/10/01 04:16:26;;;;;;;4.97;4.60;;;11.20;1.00;;;;;;5046453;28;20495;-74
2022/10/01 04:18:52;;;;;;;4.90;4.43;;;11.10;1.00;;;;;;5052765;28;20629;-67
2022/10/01 04:21:18;;;;;;;5.60;4.67;;;11.20;1.00;;;;;;5041250;28;20207;-73
2022/10/01 04:23:43;;;;;;;5.73;4.37;;;11.20;1.00;;;;;;5032364;28;20441;-67
2022/10/01 04:26:09;;;;;;;7.27;4.63;;;11.10;1.00;;;;;;5042707;28;20670;-74
2022/10/01 04:28:35;;;;;;;4.60;4.20;;;11.10;1.00;;;;;;5053054;28;20194;-67
2022/10/01 04:33:45;;;;;;;6.13;4.47;;;11.20;1.00;;;;;;5031958;28;20273;-68
2022/10/01 04:36:11;;;;;;;4.17;3.80;;;11.20;1.00;;;;;;5041221;28;20900;-73
2022/10/01 04:38:37;;;;;;;4.77;4.40;;;11.20;1.00;;;;;;5053259;28;20194;-67
2022/10/01 04:41:02;;;;;;;5.30;4.53;;;11.20;1.00;;;;;;5046075;28;20648;-68
2022/10/01 04:43:28;;;;;;;5.10;4.53;;;11.20;1.00;;;;;;5032897;28;20168;-68
2022/10/01 04:45:54;;;;;;;4.87;4.47;;;11.20;1.00;;;;;;5037349;28;20277;-74
2022/10/01 04:48:20;;;;;;;4.90;4.50;;;11.20;1.00;;;;;;5052908;28;20202;-67
2022/10/01 04:50:46;;;;;;;5.00;4.03;;;11.10;1.00;;;;;;5049388;28;20401;-74
2022/10/01 04:53:11;;;;;;;4.87;4.43;;;11.10;1.00;;;;;;5032568;28;20720;-68
2022/10/01 04:55:37;;;;;;;5.20;4.70;;;11.00;1.00;;;;;;5033383;28;20194;-74
2022/10/01 04:58:03;;;;;;;7.40;5.00;;;10.90;1.00;;;;;;5052920;28;20174;-74
2022/10/01 05:00:29;;;;;;;5.40;5.00;;;10.90;1.00;;;;;;5052696;28;20163;-73
2022/10/01 05:02:54;;;;;;;5.97;5.10;;;10.90;1.00;;;;;;5033559;28;20188;-75
2022/10/01 05:05:22;;;;;;;4.93;4.53;;;10.80;1.00;;;;;;5032066;28;20271;-67
2022/10/01 05:07:48;;;;;;;4.50;4.10;;;10.80;1.00;;;;;;5032764;28;20203;-69
2022/10/01 05:10:17;;;;;;;7.50;5.60;;;10.70;1.00;;;;;;5033127;28;20459;-68
2022/10/01 05:12:42;;;;;;;8.43;5.60;;;10.60;1.00;;;;;;5052285;28;20429;-75
2022/10/01 05:15:09;;;;;;;5.37;4.97;;;10.60;1.00;;;;;;5051781;28;20458;-68
2022/10/01 05:17:34;;;;;;;5.50;5.00;;;10.60;1.00;;;;;;5033470;28;20624;-68
2022/10/01 05:20:03;;;;;;;6.60;5.00;;;10.60;1.00;;;;;;5037358;28;20408;-74
2022/10/01 05:22:29;;;;;;;5.63;5.13;;;10.60;1.00;;;;;;5038251;28;20233;-67
2022/10/01 05:24:55;;;;;;;6.17;4.90;;;10.60;7.60;;;;;;5035206;28;20913;-72
2022/10/01 05:27:21;;;;;;;6.00;5.50;;;10.60;18.30;;;;;;5036772;28;20175;-68
2022/10/01 05:29:47;;;;;;;5.23;4.80;;;10.50;27.70;;;;;;5036007;28;20431;-75
2022/10/01 05:32:13;;;;;;;6.20;5.60;;;10.50;37.00;;;;;;5035871;28;20178;-76
2022/10/01 05:34:38;;;;;;;5.90;5.40;;;10.50;21.40;;;;;;5035249;28;20405;-68
2022/10/01 05:37:04;;;;;;;5.97;5.57;;;10.50;23.90;;;;;;5052035;28;20257;-75
2022/10/01 05:39:30;;;;;;;9.00;5.40;;;10.50;62.80;;;;;;5055949;28;20177;-75
2022/10/01 05:41:57;;;;;;;5.67;5.27;;;10.50;54.10;;;;;;5041045;28;20600;-75
2022/10/01 05:44:23;;;;;;;5.70;5.30;;;10.50;49.20;;;;;;5035210;28;20515;-69
2022/10/01 05:46:49;;;;;;;7.43;5.60;;;10.40;56.70;;;;;;5035901;28;20429;-75
2022/10/01 05:49:16;;;;;;;6.80;6.10;;;10.40;74.70;;;;;;5035541;28;20454;-70
2022/10/01 05:51:42;;;;;;;6.20;5.70;;;10.40;92.00;;;;;;5035799;28;20878;-69
2022/10/01 05:54:08;;;;;;;6.30;5.80;;;10.40;94.80;;;;;;5034224;28;20804;-75
2022/10/01 05:56:34;;;;;;;5.37;4.97;;;10.50;94.80;;;;;;5035593;28;20541;-76
2022/10/01 05:58:59;;;;;;;5.63;5.10;;;10.40;95.10;;;;;;5035732;28;20388;-76
2022/10/01 06:01:25;;;;;;;6.37;5.87;;;10.50;93.00;;;;;;5035776;28;20214;-71
2022/10/01 06:03:51;;;;;;;6.60;5.67;;;10.40;92.10;;;;;;5034439;28;20197;-76
2022/10/01 06:06:24;;;;;;;7.27;6.03;;;10.40;99.90;;;;;;5034678;28;20207;-73
2022/10/01 06:08:50;;;;;;;7.10;5.77;;;10.40;99.90;;;;;;5035386;28;20492;-77
2022/10/01 06:11:16;;;;;;;5.93;5.40;;;10.40;99.90;;;;;;5035493;28;20750;-73
2022/10/01 06:13:45;;;;;;;6.20;5.50;;;10.40;99.90;;;;;;5034700;28;20755;-73
2022/10/01 06:16:12;;;;;;;8.20;5.60;;;10.40;99.90;;;;;;5035204;28;20754;-73
2022/10/01 06:18:39;;;;;;;6.53;5.93;;;10.30;99.90;;;;;;5035333;28;20384;-74
2022/10/01 06:21:04;;;;;;;6.17;5.20;;;10.20;99.90;;;;;;5034403;28;20404;-75
2022/10/01 06:23:30;;;;;;;5.20;4.80;;;10.30;99.90;;;;;;5034371;28;20763;-76
2022/10/01 06:25:59;;;;;;;6.00;5.50;;;10.30;99.90;;;;;;5035404;28;20191;-76
2022/10/01 06:28:24;;;;;;;7.03;5.20;;;10.40;99.90;;;;;;5054778;28;20201;-73
2022/10/01 06:30:50;;;;;;;5.27;4.87;;;10.30;99.90;;;;;;5053416;28;20449;-75
2022/10/01 06:33:17;;;;;;;5.03;4.63;;;10.30;99.90;;;;;;5034960;28;20182;-75
2022/10/01 06:35:48;;;;;;;6.00;5.40;;;10.30;99.90;;;;;;5034143;28;20190;-76
2022/10/01 06:38:16;;;;;;;5.57;5.10;;;10.30;99.90;;;;;;5035794;28;20758;-76
2022/10/01 06:40:42;;;;;;;5.40;5.00;;;10.20;99.90;;;;;;5034538;28;20955;-76
2022/10/01 06:43:08;;;;;;;7.30;5.97;;;10.20;99.90;;;;;;5046952;28;20503;-76
2022/10/01 06:45:37;;;;;;;6.43;5.33;;;10.20;99.90;;;;;;5033935;28;20206;-76
2022/10/01 06:48:03;;;;;;;4.70;4.30;;;10.20;99.90;;;;;;5034789;28;20441;-76
2022/10/01 06:50:30;;;;;;;6.17;5.57;;;10.20;99.90;;;;;;5038794;28;20427;-77
2022/10/01 06:52:57;;;;;;;5.73;5.33;;;10.20;99.90;;;;;;5034633;28;20417;-77
2022/10/01 06:55:31;;;;;;;5.17;4.77;;;10.20;99.90;;;;;;5040269;28;20411;-76
2022/10/01 06:57:59;;;;;;;5.50;5.00;;;10.20;99.90;;;;;;5054100;28;20405;-78
2022/10/01 07:00:26;;;;;;;8.10;5.10;;;10.20;99.90;;;;;;5053523;28;20384;-75
2022/10/01 07:02:54;;;;;;;5.43;4.97;;;10.20;99.90;;;;;;5054315;28;20515;-76
2022/10/01 07:05:20;;;;;;;6.40;5.27;;;10.20;99.90;;;;;;5018210;28;20445;-77
2022/10/01 07:07:47;;;;;;;4.93;4.50;;;10.20;99.90;;;;;;5034453;28;20910;-77
2022/10/01 07:10:14;;;;;;;6.23;5.47;;;10.10;99.90;;;;;;5049953;28;20532;-77
2022/10/01 07:12:40;;;;;;;4.90;4.50;;;10.10;99.90;;;;;;5054060;28;20394;-76
2022/10/01 07:15:07;;;;;;;6.57;5.53;;;10.10;99.90;;;;;;5038015;28;20745;-76
2022/10/01 07:17:33;;;;;;;5.67;4.97;;;10.20;99.90;;;;;;5034180;28;20195;-77
2022/10/01 07:20:00;;;;;;;4.53;4.13;;;10.20;99.90;;;;;;5035836;28;20389;-75
2022/10/01 07:22:26;;;;;;;4.60;4.20;;;10.20;99.90;;;;;;5032763;28;20413;-74
2022/10/01 07:24:52;;;;;;;4.80;4.30;;;10.10;99.90;;;;;;5031906;28;20417;-74
2022/10/01 07:27:18;;;;;;;4.67;4.30;;;10.00;99.90;;;;;;5034343;28;20429;-76
2022/10/01 07:29:44;;;;;;;4.50;4.20;;;10.10;99.90;;;;;;5047406;28;20619;-74
2022/10/01 07:32:10;;;;;;;4.73;4.17;;;10.10;99.90;;;;;;5053777;28;20770;-73
2022/10/01 07:34:39;;;;;;;4.37;4.07;;;10.10;99.90;;;;;;5036337;28;20422;-73
2022/10/01 07:37:05;;;;;;;5.03;4.60;;;10.10;99.90;;;;;;5034035;28;20509;-73
2022/10/01 07:39:31;;;;;;;4.93;4.53;;;10.20;99.90;;;;;;5047894;28;20451;-73
2022/10/01 07:41:57;;;;;;;5.40;5.00;;;10.20;99.90;;;;;;5053306;28;20402;-73
2022/10/01 07:44:25;;;;;;;5.20;4.70;;;10.20;99.90;;;;;;5039745;28;20425;-74
2022/10/01 07:46:51;;;;;;;5.50;5.00;;;10.20;1.00;;;;;;5033438;28;20408;-73
2022/10/01 07:49:16;;;;;;;4.47;4.27;;;10.20;1.00;;;;;;5044510;28;20457;-73
2022/10/01 07:51:42;;;;;;;5.13;4.80;;;10.20;1.00;;;;;;5053286;28;20159;-72
2022/10/01 07:54:08;;;;;;;4.23;3.93;;;10.20;1.00;;;;;;5042810;28;20520;-72
2022/10/01 07:56:34;;;;;;;4.23;3.90;;;10.20;1.00;;;;;;5032585;28;20512;-73
2022/10/01 07:59:00;;;;;;;6.80;4.90;;;10.20;1.00;;;;;;5040050;28;20416;-72
2022/10/01 08:01:25;;;;;;;5.83;4.00;;;10.10;1.00;;;;;;5053530;28;20252;-73
2022/10/01 08:03:52;;;;;;;4.27;3.87;;;10.10;1.00;;;;;;5044968;28;20523;-69
2022/10/01 08:06:19;;;;;;;5.80;5.30;;;10.20;1.00;;;;;;5032011;28;20199;-69
2022/10/01 08:08:46;;;;;;;4.50;4.10;;;10.20;1.00;;;;;;5032796;28;20799;-72
2022/10/01 08:11:14;;;;;;;4.43;4.03;;;10.20;1.00;;;;;;5032208;28;20833;-69
2022/10/01 08:13:46;;;;;;;5.33;4.80;;;10.20;1.00;;;;;;5032711;28;20391;-73
2022/10/01 08:16:12;;;;;;;4.43;4.13;;;10.20;1.00;;;;;;5033405;28;20479;-69
2022/10/01 08:18:39;;;;;;;4.50;4.10;;;10.20;1.00;;;;;;5033346;28;20430;-72
2022/10/01 08:21:05;;;;;;;4.40;4.10;;;10.20;1.00;;;;;;5033317;28;20436;-74
2022/10/01 08:23:32;;;;;;;4.50;4.00;;;10.20;1.00;;;;;;5033240;28;20496;-69
2022/10/01 08:26:05;;;;;;;4.40;4.10;;;10.20;1.00;;;;;;5032281;28;20480;-71
2022/10/01 08:28:32;;;;;;;4.87;4.53;;;10.20;1.00;;;;;;5033133;28;20427;-69
2022/10/01 08:30:58;;;;;;;4.90;4.17;;;10.30;1.00;;;;;;5033107;28;20497;-72
2022/10/01 08:33:23;;;;;;;5.30;3.87;;;10.30;1.00;;;;;;5033035;28;20387;-70
2022/10/01 08:35:49;;;;;;;5.73;4.27;;;10.40;1.00;;;;;;5032538;28;20175;-73
2022/10/01 08:38:15;;;;;;;4.20;3.63;;;10.40;1.00;;;;;;5033236;28;20164;-69
2022/10/01 08:40:52;;;;;;;4.43;4.13;;;10.40;1.00;;;;;;5033232;28;20724;-72
2022/10/01 08:43:27;;;;;;;4.20;3.87;;;10.40;1.00;;;;;;5031433;28;20463;-72
2022/10/01 08:45:55;;;;;;;5.33;4.50;;;10.40;1.00;;;;;;5032565;28;20482;-70
2022/10/01 08:48:30;;;;;;;3.77;3.50;;;10.40;1.00;;;;;;5033285;28;20861;-69
2022/10/01 08:51:09;;;;;;;3.53;3.30;;;10.50;1.00;;;;;;5033193;28;20372;-68
2022/10/01 08:53:46;;;;;;;4.50;4.20;;;10.50;1.00;;;;;;5033317;28;20376;-73
2022/10/01 08:56:23;;;;;;;4.20;3.80;;;10.50;1.00;;;;;;5036899;28;20390;-73
2022/10/01 08:58:56;;;;;;;4.93;4.07;;;10.50;1.00;;;;;;5035778;28;20399;-72
2022/10/01 09:01:22;;;;;;;3.90;3.60;;;10.50;1.00;;;;;;5036503;28;20409;-70
2022/10/01 09:03:49;;;;;;;3.60;3.40;;;10.50;1.00;;;;;;5035777;28;20429;-70
2022/10/01 09:06:14;;;;;;;3.97;3.67;;;10.50;1.00;;;;;;5036603;28;20403;-72
2022/10/01 09:08:46;;;;;;;3.30;3.10;;;10.60;1.00;;;;;;5036571;28;20409;-69
2022/10/01 09:11:36;;;;;;;3.23;3.03;;;10.60;1.00;;;;;;5035575;28;20167;-71
2022/10/01 09:14:39;;;;;;;4.33;4.03;;;10.60;1.00;;;;;;5035936;28;20377;-73
2022/10/01 09:17:28;;;;;;;3.60;3.40;;;10.60;1.00;;;;;;5036493;28;20447;-69
2022/10/01 09:20:08;;;;;;;3.30;3.10;;;10.60;1.00;;;;;;5034690;28;20751;-73
2022/10/01 09:22:48;;;;;;;4.43;4.10;;;10.60;1.00;;;;;;5036341;28;20462;-72
2022/10/01 09:25:26;;;;;;;3.67;3.37;;;10.60;1.00;;;;;;5034315;28;20937;-70
2022/10/01 09:28:05;;;;;;;3.10;2.90;;;10.60;1.00;;;;;;5036599;28;20380;-73
2022/10/01 09:30:32;;;;;;;2.90;2.70;;;10.70;1.00;;;;;;5036173;28;20380;-74
2022/10/01 09:33:15;;;;;;;3.40;3.20;;;10.70;1.00;;;;;;5036129;28;20368;-69
2022/10/01 09:36:01;;;;;;;4.07;3.67;;;10.70;1.00;;;;;;5035311;28;20418;-70
2022/10/01 09:38:26;;;;;;;3.70;3.50;;;10.70;1.00;;;;;;5034478;28;20418;-69
2022/10/01 09:40:54;;;;;;;2.93;2.73;;;10.80;1.00;;;;;;5034999;28;20479;-70
2022/10/01 09:43:22;;;;;;;3.53;3.33;;;10.80;1.00;;;;;;5035833;28;20168;-72
2022/10/01 09:45:50;;;;;;;3.50;3.20;;;10.80;1.00;;;;;;5035153;28;20421;-74
2022/10/01 09:48:23;;;;;;;4.00;3.73;;;10.80;1.00;;;;;;5035970;28;20375;-70
2022/10/01 09:50:57;;;;;;;2.83;2.60;;;10.90;1.00;;;;;;5035920;28;20409;-74
2022/10/01 09:53:34;;;;;;;3.30;3.00;;;10.90;1.00;;;;;;5035787;28;20516;-69
2022/10/01 09:56:09;;;;;;;3.03;2.83;;;11.00;1.00;;;;;;5033741;28;20912;-69
2022/10/01 09:58:38;;;;;;;3.33;3.03;;;11.00;1.00;;;;;;5035653;28;20383;-69
2022/10/01 10:01:17;;;;;;;6.00;2.60;;;11.00;1.00;;;;;;5035809;28;20398;-68
2022/10/01 10:03:53;;;;;;;2.60;2.50;;;11.00;1.00;;;;;;5034339;28;20479;-68
2022/10/01 10:06:26;;;;;;;3.93;3.60;;;11.00;1.00;;;;;;5035624;28;20409;-73
2022/10/01 10:08:54;;;;;;;2.80;2.60;;;11.10;1.00;;;;;;5035472;28;20421;-68
2022/10/01 10:11:26;;;;;;;3.73;3.00;;;11.10;1.00;;;;;;5034245;28;20459;-68
2022/10/01 10:13:59;;;;;;;2.77;2.57;;;11.10;1.00;;;;;;5034277;28;20468;-73
2022/10/01 10:16:25;;;;;;;2.73;2.53;;;11.10;1.00;;;;;;5035383;28;20392;-69
2022/10/01 10:19:15;;;;;;;2.33;2.23;;;11.10;1.00;;;;;;5035322;28;20506;-69
2022/10/01 10:21:51;;;;;;;2.80;2.60;;;11.20;1.00;;;;;;5037329;28;20422;-74
2022/10/01 10:24:35;;;;;;;2.93;2.70;;;11.10;1.00;;;;;;5034572;28;20389;-73
2022/10/01 10:27:04;;;;;;;2.57;2.43;;;11.10;1.00;;;;;;5035240;28;20392;-73
2022/10/01 10:29:35;;;;;;;2.70;2.50;;;11.20;1.00;;;;;;5033579;28;20460;-71
2022/10/01 10:32:11;;;;;;;3.63;3.33;;;11.20;1.00;;;;;;5034041;28;20458;-69
2022/10/01 10:34:38;;;;;;;3.03;2.83;;;11.20;13.10;;;;;;5034369;28;20390;-72
2022/10/01 10:37:10;;;;;;;3.37;3.17;;;11.30;28.00;;;;;;5035072;28;20828;-69
2022/10/01 10:39:39;;;;;;;3.40;3.20;;;11.40;44.80;;;;;;5034899;28;20428;-74
2022/10/01 10:42:06;;;;;;;3.53;3.30;;;11.50;60.40;;;;;;5034776;28;20881;-72
2022/10/01 10:44:38;;;;;;;4.37;4.00;;;11.50;68.60;;;;;;5034305;28;20471;-72
2022/10/01 10:47:10;;;;;;;4.77;4.30;;;11.60;71.30;;;;;;5034934;28;20764;-69
2022/10/01 10:49:57;;;;;;;4.50;4.17;;;11.60;78.60;;;;;;5034243;28;20917;-70
2022/10/01 10:52:35;;;;;;;4.17;3.87;;;11.60;90.90;;;;;;5035107;28;20389;-69
2022/10/01 10:55:31;;;;;;;4.60;4.20;;;11.80;99.90;;;;;;5033975;28;20447;-70
2022/10/01 10:58:14;;;;;;;4.40;4.13;;;11.90;99.90;;;;;;5038291;28;20509;-74
2022/10/01 11:00:51;;;;;;;6.67;5.47;;;12.10;99.90;;;;;;5034668;28;20384;-69
2022/10/01 11:03:21;;;;;;;4.30;3.90;;;12.20;99.90;;;;;;5034532;28;20418;-70
2022/10/01 11:05:50;;;;;;;4.70;4.30;;;12.20;99.90;;;;;;5033888;28;20422;-73
2022/10/01 11:08:26;;;;;;;5.70;5.23;;;12.30;99.90;;;;;;5033793;28;20384;-73
2022/10/01 11:11:34;;;;;;;6.00;5.00;;;12.40;99.90;;;;;;5034464;28;20789;-74
2022/10/01 11:14:21;;;;;;;8.47;6.17;;;12.60;99.90;;;;;;5032424;28;20458;-70
2022/10/01 11:17:06;;;;;;;5.53;4.60;;;12.90;99.90;;;;;;5032099;28;20428;-71
2022/10/01 11:19:54;;;;;;;6.90;4.40;;;13.00;99.90;;;;;;5036941;28;20400;-67
2022/10/01 11:22:25;;;;;;;5.20;4.80;;;13.20;99.90;;;;;;5034055;28;20403;-67
2022/10/01 11:25:17;;;;;;;7.17;5.23;;;13.40;99.90;;;;;;5033140;28;20456;-71
2022/10/01 11:27:43;;;;;;;6.20;4.70;;;13.60;99.90;;;;;;5033880;28;20922;-74
2022/10/01 11:30:32;;;;;;;6.57;5.20;;;13.70;95.40;;;;;;5032651;28;20446;-72
2022/10/01 11:33:07;;;;;;;6.20;4.00;;;13.90;92.10;;;;;;5032949;28;20175;-71
2022/10/01 11:35:54;;;;;;;6.10;4.73;;;14.00;82.80;;;;;;5031862;28;20426;-68
2022/10/01 11:38:40;;;;;;;4.37;4.00;;;14.30;87.20;;;;;;5033719;28;20400;-71
2022/10/01 11:41:17;;;;;;;6.13;4.10;;;14.60;84.00;;;;;;5033963;28;20414;-68
2022/10/01 11:44:07;;;;;;;11.07;5.27;;;14.70;63.70;;;;;;5032709;28;20853;-68
2022/10/01 11:46:37;;;;;;;3.63;3.03;;;15.00;56.40;;;;;;5033233;28;20439;-67
2022/10/01 11:49:26;;;;;;;6.00;2.93;;;15.20;11.70;;;;;;5033803;28;20456;-71
2022/10/01 11:52:10;;;;;;;5.00;2.93;;;15.20;1.00;;;;;;5035732;28;20430;-70
2022/10/01 11:54:40;;;;;;;5.70;2.63;;;15.10;1.00;;;;;;5032773;28;20456;-70
2022/10/01 12:00:08;;;;;;;4.20;3.13;;;15.00;1.00;;;;;;5032293;28;20381;-72
2022/10/01 12:02:55;;;;;;;11.17;3.17;;;15.10;1.00;;;;;;5033295;28;20507;-73
2022/10/01 12:05:27;;;;;;;7.50;3.27;;;15.00;1.00;;;;;;5032611;28;20442;-67
2022/10/01 12:07:56;;;;;;;4.30;2.90;;;15.00;1.00;;;;;;5033456;28;20407;-67
2022/10/01 12:10:46;;;;;;;8.43;3.33;;;15.00;1.00;;;;;;5033434;28;20482;-68
2022/10/01 12:13:21;;;;;;;6.20;2.70;;;15.00;1.00;;;;;;5033574;28;20403;-73
2022/10/01 12:15:54;;;;;;;10.20;2.80;;;14.90;1.00;;;;;;5032748;28;20424;-68
2022/10/01 12:18:47;;;;;;;6.70;2.60;;;14.80;1.00;;;;;;5033345;28;20438;-68
2022/10/01 12:21:24;;;;;;;8.13;2.53;;;14.90;1.00;;;;;;5034386;28;20396;-71
2022/10/01 12:24:09;;;;;;;5.77;2.83;;;15.00;1.00;;;;;;5032683;28;20501;-71
2022/10/01 12:26:58;;;;;;;4.23;2.20;;;15.30;1.00;;;;;;5032087;28;20434;-71
2022/10/01 12:29:45;;;;;;;5.80;2.57;;;15.70;1.00;;;;;;5036175;28;20441;-71
2022/10/01 12:32:12;;;;;;;6.00;2.10;;;16.00;1.00;;;;;;5037213;28;20410;-70
2022/10/01 12:34:44;;;;;;;6.20;1.50;;;17.10;1.00;;;;;;5036536;28;20394;-72
2022/10/01 12:37:26;;;;;;;7.70;2.17;;;18.50;99.90;;;;;;5037334;28;20810;-72
2022/10/01 12:40:07;;;;;;;16.53;1.63;;;19.80;99.90;;;;;;5036917;28;20899;-72
2022/10/01 12:42:54;;;;;;;10.53;1.50;;;21.00;99.90;;;;;;5037044;28;20416;-71
2022/10/01 12:45:23;;;;;;;6.10;1.13;;;21.80;78.20;;;;;;5036269;28;20520;-73
2022/10/01 12:48:15;;;;;;;4.30;1.43;;;22.40;40.40;;;;;;5037156;28;20879;-73
2022/10/01 12:50:56;;;;;;;4.13;1.03;;;22.90;20.10;;;;;;5037888;28;20505;-71
2022/10/01 12:53:35;;;;;;;7.37;2.53;;;22.60;1.00;;;;;;5038711;28;20414;-68
2022/10/01 12:56:29;;;;;;;3.63;1.10;;;21.80;1.00;;;;;;5036119;28;20474;-75
2022/10/01 12:59:07;;;;;;;7.37;1.90;;;21.30;1.00;;;;;;5046357;28;20437;-70
2022/10/01 13:01:57;;;;;;;6.97;2.03;;;21.60;1.00;;;;;;5039100;28;20437;-70
2022/10/01 13:04:38;;;;;;;8.17;1.70;;;22.70;1.00;;;;;;5038510;28;20435;-70
2022/10/01 13:07:35;;;;;;;4.50;1.27;;;24.20;1.00;;;;;;5036564;28;20409;-71
2022/10/01 13:10:10;;;;;;;5.53;1.03;;;25.30;1.00;;;;;;5035445;28;20454;-71
2022/10/01 13:13:06;;;;;;;4.67;1.40;;;25.40;1.00;;;;;;5036648;28;20402;-74
2022/10/01 13:15:36;;;;;;;4.03;1.33;;;24.80;1.00;;;;;;5044751;28;20453;-69
2022/10/01 13:18:05;;;;;;;8.10;1.20;;;23.40;1.00;;;;;;5055489;28;20833;-73
2022/10/01 13:20:42;;;;;;;3.63;1.10;;;22.60;1.00;;;;;;5056156;28;20409;-72